sensor_id;sensor_type;location;lat;lon;timestamp;temperature;humidity
25328;DHT22;13279;51.300;12.394;2023-05-29T00:01:37;14.20;99.90
25328;DHT22;13279;51.300;12.394;2023-05-29T00:04:06;14.10;99.90
25328;DHT22;13279;51.300;12.394;2023-05-29T00:06:33;13.90;99.90
25328;DHT22;13279;51.300;12.394;2023-05-29T00:09:02;13.80;99.90
25328;DHT22;13279;51.300;12.394;2023-05-29T00:11:30;13.80;99.90
25328;DHT22;13279;51.300;12.394;2023-05-29T00:13:59;13.50;99.90
25328;DHT22;13279;51.300;12.394;2023-05-29T00:16:26;13.40;99.90
25328;DHT22;13279;51.300;12.394;2023-05-29T00:18:55;13.40;99.90
25328;DHT22;13279;51.300;12.394;2023-05-29T00:21:23;13.30;99.90
25328;DHT22;13279;51.300;12.394;2023-05-29T00:23:51;13.40;99.90
25328;DHT22;13279;51.300;12.394;2023-05-29T00:26:19;13.40;99.90
25328;DHT22;13279;51.300;12.394;2023-05-29T00:28:53;13.50;99.90
25328;DHT22;13279;51.300;12.394;2023-05-29T00:31:22;13.50;99.90
25328;DHT22;13279;51.300;12.394;2023-05-29T00:33:51;13.50;99.90
25328;DHT22;13279;51.300;12.394;2023-05-29T00:36:19;13.50;99.90
25328;DHT22;13279;51.300;12.394;2023-05-29T00:38:47;13.40;99.90
25328;DHT22;13279;51.300;12.394;2023-05-29T00:41:15;13.30;99.90
25328;DHT22;13279;51.300;12.394;2023-05-29T00:43:43;13.30;99.90
25328;DHT22;13279;51.300;12.394;2023-05-29T00:46:14;13.30;99.90
25328;DHT22;13279;51.300;12.394;2023-05-29T00:48:45;13.30;99.90
25328;DHT22;13279;51.300;12.394;2023-05-29T00:51:13;13.20;99.90
25328;DHT22;13279;51.300;12.394;2023-05-29T00:53:43;13.10;99.90
25328;DHT22;13279;51.300;12.394;2023-05-29T00:56:12;13.00;99.90
25328;DHT22;13279;51.300;12.394;2023-05-29T00:58:42;12.90;99.90
25328;DHT22;13279;51.300;12.394;2023-05-29T01:01:10;12.90;99.90
25328;DHT22;13279;51.300;12.394;2023-05-29T01:03:38;13.00;99.90
25328;DHT22;13279;51.300;12.394;2023-05-29T01:06:08;13.20;99.90
25328;DHT22;13279;51.300;12.394;2023-05-29T01:08:37;13.40;99.90
25328;DHT22;13279;51.300;12.394;2023-05-29T01:11:19;13.50;99.90
25328;DHT22;13279;51.300;12.394;2023-05-29T01:13:49;13.60;99.90
25328;DHT22;13279;51.300;12.394;2023-05-29T01:16:24;13.70;99.90
25328;DHT22;13279;51.300;12.394;2023-05-29T01:18:57;13.70;99.90
25328;DHT22;13279;51.300;12.394;2023-05-29T01:21:42;13.70;99.90
25328;DHT22;13279;51.300;12.394;2023-05-29T01:24:24;13.70;99.90
25328;DHT22;13279;51.300;12.394;2023-05-29T01:26:58;13.70;99.90
25328;DHT22;13279;51.300;12.394;2023-05-29T01:29:29;13.60;99.90
25328;DHT22;13279;51.300;12.394;2023-05-29T01:31:58;13.60;99.90
25328;DHT22;13279;51.300;12.394;2023-05-29T01:34:28;13.50;99.90
25328;DHT22;13279;51.300;12.394;2023-05-29T01:36:56;13.50;99.90
25328;DHT22;13279;51.300;12.394;2023-05-29T01:39:26;13.50;99.90
25328;DHT22;13279;51.300;12.394;2023-05-29T01:41:55;13.50;99.90
25328;DHT22;13279;51.300;12.394;2023-05-29T01:44:23;13.50;99.90
25328;DHT22;13279;51.300;12.394;2023-05-29T01:46:52;13.40;99.90
25328;DHT22;13279;51.300;12.394;2023-05-29T01:49:23;13.40;99.90
25328;DHT22;13279;51.300;12.394;2023-05-29T01:51:51;13.40;99.90
25328;DHT22;13279;51.300;12.394;2023-05-29T01:54:22;13.30;99.90
25328;DHT22;13279;51.300;12.394;2023-05-29T01:57:11;13.20;99.90
25328;DHT22;13279;51.300;12.394;2023-05-29T01:59:53;13.20;99.90
25328;DHT22;13279;51.300;12.394;2023-05-29T02:02:22;13.10;99.90
25328;DHT22;13279;51.300;12.394;2023-05-29T02:04:50;13.10;99.90
25328;DHT22;13279;51.300;12.394;2023-05-29T02:07:18;13.00;99.90
25328;DHT22;13279;51.300;12.394;2023-05-29T02:09:46;13.00;99.90
25328;DHT22;13279;51.300;12.394;2023-05-29T02:12:15;12.90;99.90
25328;DHT22;13279;51.300;12.394;2023-05-29T02:14:43;12.80;99.90
25328;DHT22;13279;51.300;12.394;2023-05-29T02:17:11;12.80;99.90
25328;DHT22;13279;51.300;12.394;2023-05-29T02:19:41;12.70;99.90
25328;DHT22;13279;51.300;12.394;2023-05-29T02:22:09;12.70;99.90
25328;DHT22;13279;51.300;12.394;2023-05-29T02:24:36;12.60;99.90
25328;DHT22;13279;51.300;12.394;2023-05-29T02:27:04;12.60;99.90
25328;DHT22;13279;51.300;12.394;2023-05-29T02:29:32;12.60;99.90
25328;DHT22;13279;51.300;12.394;2023-05-29T02:32:00;12.60;99.90
25328;DHT22;13279;51.300;12.394;2023-05-29T02:34:28;12.50;99.90
25328;DHT22;13279;51.300;12.394;2023-05-29T02:36:56;12.50;99.90
25328;DHT22;13279;51.300;12.394;2023-05-29T02:39:24;12.50;99.90
25328;DHT22;13279;51.300;12.394;2023-05-29T02:41:52;12.50;99.90
25328;DHT22;13279;51.300;12.394;2023-05-29T02:44:19;12.50;99.90
25328;DHT22;13279;51.300;12.394;2023-05-29T02:46:49;12.50;99.90
25328;DHT22;13279;51.300;12.394;2023-05-29T02:49:16;12.50;99.90
25328;DHT22;13279;51.300;12.394;2023-05-29T02:51:44;12.50;99.90
25328;DHT22;13279;51.300;12.394;2023-05-29T02:54:11;12.50;99.90
25328;DHT22;13279;51.300;12.394;2023-05-29T02:56:40;12.40;99.90
25328;DHT22;13279;51.300;12.394;2023-05-29T02:59:07;12.40;99.90
25328;DHT22;13279;51.300;12.394;2023-05-29T03:01:35;12.30;99.90
25328;DHT22;13279;51.300;12.394;2023-05-29T03:04:04;12.20;99.90
25328;DHT22;13279;51.300;12.394;2023-05-29T03:06:32;12.10;99.90
25328;DHT22;13279;51.300;12.394;2023-05-29T03:09:00;12.10;99.90
25328;DHT22;13279;51.300;12.394;2023-05-29T03:11:30;12.10;99.90
25328;DHT22;13279;51.300;12.394;2023-05-29T03:13:59;12.00;99.90
25328;DHT22;13279;51.300;12.394;2023-05-29T03:16:26;12.00;99.90
25328;DHT22;13279;51.300;12.394;2023-05-29T03:18:56;11.90;99.90
25328;DHT22;13279;51.300;12.394;2023-05-29T03:21:25;11.90;99.90
25328;DHT22;13279;51.300;12.394;2023-05-29T03:23:53;11.80;99.90
25328;DHT22;13279;51.300;12.394;2023-05-29T03:26:20;11.80;99.90
25328;DHT22;13279;51.300;12.394;2023-05-29T03:28:49;11.80;99.90
25328;DHT22;13279;51.300;12.394;2023-05-29T03:31:16;11.90;99.90
25328;DHT22;13279;51.300;12.394;2023-05-29T03:33:44;11.80;99.90
25328;DHT22;13279;51.300;12.394;2023-05-29T03:36:21;11.70;99.90
25328;DHT22;13279;51.300;12.394;2023-05-29T03:38:51;11.70;99.90
25328;DHT22;13279;51.300;12.394;2023-05-29T03:41:19;11.70;99.90
25328;DHT22;13279;51.300;12.394;2023-05-29T03:43:47;11.70;99.90
25328;DHT22;13279;51.300;12.394;2023-05-29T03:46:15;11.80;99.90
25328;DHT22;13279;51.300;12.394;2023-05-29T03:48:43;11.70;99.90
25328;DHT22;13279;51.300;12.394;2023-05-29T03:51:11;11.70;99.90
25328;DHT22;13279;51.300;12.394;2023-05-29T03:53:40;11.70;99.90
25328;DHT22;13279;51.300;12.394;2023-05-29T03:56:09;11.80;99.90
25328;DHT22;13279;51.300;12.394;2023-05-29T03:58:37;11.80;99.90
25328;DHT22;13279;51.300;12.394;2023-05-29T04:01:04;11.80;99.90
25328;DHT22;13279;51.300;12.394;2023-05-29T04:03:32;11.80;99.90
25328;DHT22;13279;51.300;12.394;2023-05-29T04:06:00;11.90;99.90
25328;DHT22;13279;51.300;12.394;2023-05-29T04:08:27;11.90;99.90
25328;DHT22;13279;51.300;12.394;2023-05-29T04:10:55;11.90;99.90
25328;DHT22;13279;51.300;12.394;2023-05-29T04:13:24;11.90;99.90
25328;DHT22;13279;51.300;12.394;2023-05-29T04:15:52;11.90;99.90
25328;DHT22;13279;51.300;12.394;2023-05-29T04:18:20;11.90;99.90
25328;DHT22;13279;51.300;12.394;2023-05-29T04:20:48;11.90;99.90
25328;DHT22;13279;51.300;12.394;2023-05-29T04:23:16;11.90;99.90
25328;DHT22;13279;51.300;12.394;2023-05-29T04:25:44;11.90;1.00
25328;DHT22;13279;51.300;12.394;2023-05-29T04:28:14;12.00;1.00
25328;DHT22;13279;51.300;12.394;2023-05-29T04:30:45;12.00;1.00
25328;DHT22;13279;51.300;12.394;2023-05-29T04:33:12;11.90;1.00
25328;DHT22;13279;51.300;12.394;2023-05-29T04:35:45;12.00;99.90
25328;DHT22;13279;51.300;12.394;2023-05-29T04:38:16;12.00;99.90
25328;DHT22;13279;51.300;12.394;2023-05-29T04:40:45;12.10;99.90
25328;DHT22;13279;51.300;12.394;2023-05-29T04:43:17;12.20;99.90
25328;DHT22;13279;51.300;12.394;2023-05-29T04:46:06;12.30;99.90
25328;DHT22;13279;51.300;12.394;2023-05-29T04:48:39;12.40;99.90
25328;DHT22;13279;51.300;12.394;2023-05-29T04:51:10;12.40;99.90
25328;DHT22;13279;51.300;12.394;2023-05-29T04:53:38;12.40;99.90
25328;DHT22;13279;51.300;12.394;2023-05-29T04:56:08;12.40;99.90
25328;DHT22;13279;51.300;12.394;2023-05-29T04:58:36;12.50;99.90
25328;DHT22;13279;51.300;12.394;2023-05-29T05:01:06;12.50;99.90
25328;DHT22;13279;51.300;12.394;2023-05-29T05:03:36;12.50;99.90
25328;DHT22;13279;51.300;12.394;2023-05-29T05:06:04;12.60;99.90
25328;DHT22;13279;51.300;12.394;2023-05-29T05:08:34;12.50;99.90
25328;DHT22;13279;51.300;12.394;2023-05-29T05:11:02;12.60;99.90
25328;DHT22;13279;51.300;12.394;2023-05-29T05:13:30;12.60;99.90
25328;DHT22;13279;51.300;12.394;2023-05-29T05:15:58;12.60;99.90
25328;DHT22;13279;51.300;12.394;2023-05-29T05:18:29;12.80;99.90
25328;DHT22;13279;51.300;12.394;2023-05-29T05:21:04;12.80;99.90
25328;DHT22;13279;51.300;12.394;2023-05-29T05:23:33;12.90;99.90
25328;DHT22;13279;51.300;12.394;2023-05-29T05:26:01;13.00;99.90
25328;DHT22;13279;51.300;12.394;2023-05-29T05:28:31;13.20;99.90
25328;DHT22;13279;51.300;12.394;2023-05-29T05:31:00;13.30;99.90
25328;DHT22;13279;51.300;12.394;2023-05-29T05:33:32;13.40;99.90
25328;DHT22;13279;51.300;12.394;2023-05-29T05:36:00;13.50;99.90
25328;DHT22;13279;51.300;12.394;2023-05-29T05:38:27;13.70;99.90
25328;DHT22;13279;51.300;12.394;2023-05-29T05:40:55;13.80;99.90
25328;DHT22;13279;51.300;12.394;2023-05-29T05:43:28;13.80;99.90
25328;DHT22;13279;51.300;12.394;2023-05-29T05:46:19;14.00;99.90
25328;DHT22;13279;51.300;12.394;2023-05-29T05:48:49;14.00;99.90
25328;DHT22;13279;51.300;12.394;2023-05-29T05:51:18;14.10;99.90
25328;DHT22;13279;51.300;12.394;2023-05-29T05:53:48;14.00;99.90
25328;DHT22;13279;51.300;12.394;2023-05-29T05:56:15;14.10;99.90
25328;DHT22;13279;51.300;12.394;2023-05-29T05:58:45;14.20;99.90
25328;DHT22;13279;51.300;12.394;2023-05-29T06:01:19;14.00;99.90
25328;DHT22;13279;51.300;12.394;2023-05-29T06:03:49;14.10;99.90
25328;DHT22;13279;51.300;12.394;2023-05-29T06:06:17;14.30;99.90
25328;DHT22;13279;51.300;12.394;2023-05-29T06:08:46;14.40;99.90
25328;DHT22;13279;51.300;12.394;2023-05-29T06:11:16;14.40;99.90
25328;DHT22;13279;51.300;12.394;2023-05-29T06:13:45;14.40;99.90
25328;DHT22;13279;51.300;12.394;2023-05-29T06:16:21;14.50;99.90
25328;DHT22;13279;51.300;12.394;2023-05-29T06:18:52;14.70;99.90
25328;DHT22;13279;51.300;12.394;2023-05-29T06:21:20;14.70;99.90
25328;DHT22;13279;51.300;12.394;2023-05-29T06:23:52;14.70;99.90
25328;DHT22;13279;51.300;12.394;2023-05-29T06:26:21;15.00;99.90
25328;DHT22;13279;51.300;12.394;2023-05-29T06:28:49;15.20;99.90
25328;DHT22;13279;51.300;12.394;2023-05-29T06:31:17;15.30;99.90
25328;DHT22;13279;51.300;12.394;2023-05-29T06:33:44;15.50;99.90
25328;DHT22;13279;51.300;12.394;2023-05-29T06:36:14;15.70;99.90
25328;DHT22;13279;51.300;12.394;2023-05-29T06:38:46;15.90;99.90
25328;DHT22;13279;51.300;12.394;2023-05-29T06:41:14;16.20;99.90
25328;DHT22;13279;51.300;12.394;2023-05-29T06:43:42;16.40;99.90
25328;DHT22;13279;51.300;12.394;2023-05-29T06:46:13;16.50;99.90
25328;DHT22;13279;51.300;12.394;2023-05-29T06:48:41;16.70;99.90
25328;DHT22;13279;51.300;12.394;2023-05-29T06:51:09;16.80;99.90
25328;DHT22;13279;51.300;12.394;2023-05-29T06:53:42;17.00;99.90
25328;DHT22;13279;51.300;12.394;2023-05-29T06:56:13;17.00;99.90
25328;DHT22;13279;51.300;12.394;2023-05-29T06:58:44;16.80;99.90
25328;DHT22;13279;51.300;12.394;2023-05-29T07:01:13;17.00;99.90
25328;DHT22;13279;51.300;12.394;2023-05-29T07:04:03;16.80;99.90
25328;DHT22;13279;51.300;12.394;2023-05-29T07:06:31;16.90;99.90
25328;DHT22;13279;51.300;12.394;2023-05-29T07:09:01;16.80;99.90
25328;DHT22;13279;51.300;12.394;2023-05-29T07:11:29;17.00;99.90
25328;DHT22;13279;51.300;12.394;2023-05-29T07:13:56;17.20;99.90
25328;DHT22;13279;51.300;12.394;2023-05-29T07:16:26;17.50;99.90
25328;DHT22;13279;51.300;12.394;2023-05-29T07:18:58;17.20;99.90
25328;DHT22;13279;51.300;12.394;2023-05-29T07:21:29;17.30;99.90
25328;DHT22;13279;51.300;12.394;2023-05-29T07:24:00;17.70;99.90
25328;DHT22;13279;51.300;12.394;2023-05-29T07:26:28;17.90;99.90
25328;DHT22;13279;51.300;12.394;2023-05-29T07:28:56;18.00;99.90
25328;DHT22;13279;51.300;12.394;2023-05-29T07:31:24;18.50;99.90
25328;DHT22;13279;51.300;12.394;2023-05-29T07:33:53;18.70;99.90
25328;DHT22;13279;51.300;12.394;2023-05-29T07:36:21;18.50;99.90
25328;DHT22;13279;51.300;12.394;2023-05-29T07:38:51;18.40;99.90
25328;DHT22;13279;51.300;12.394;2023-05-29T07:41:21;18.10;99.90
25328;DHT22;13279;51.300;12.394;2023-05-29T07:43:52;17.90;99.90
25328;DHT22;13279;51.300;12.394;2023-05-29T07:46:22;18.10;99.90
25328;DHT22;13279;51.300;12.394;2023-05-29T07:48:54;18.50;99.90
25328;DHT22;13279;51.300;12.394;2023-05-29T07:51:23;18.70;99.90
25328;DHT22;13279;51.300;12.394;2023-05-29T07:53:51;19.00;99.90
25328;DHT22;13279;51.300;12.394;2023-05-29T07:56:21;19.10;99.90
25328;DHT22;13279;51.300;12.394;2023-05-29T07:58:48;19.40;99.90
25328;DHT22;13279;51.300;12.394;2023-05-29T08:01:16;19.60;99.90
25328;DHT22;13279;51.300;12.394;2023-05-29T08:03:43;19.70;99.90
25328;DHT22;13279;51.300;12.394;2023-05-29T08:06:20;20.00;99.90
25328;DHT22;13279;51.300;12.394;2023-05-29T08:08:49;19.90;99.90
25328;DHT22;13279;51.300;12.394;2023-05-29T08:11:23;20.00;99.90
25328;DHT22;13279;51.300;12.394;2023-05-29T08:13:54;20.30;99.90
25328;DHT22;13279;51.300;12.394;2023-05-29T08:16:22;20.00;99.90
25328;DHT22;13279;51.300;12.394;2023-05-29T08:18:51;20.10;99.90
25328;DHT22;13279;51.300;12.394;2023-05-29T08:21:18;20.20;99.90
25328;DHT22;13279;51.300;12.394;2023-05-29T08:23:46;19.90;99.90
25328;DHT22;13279;51.300;12.394;2023-05-29T08:26:13;19.90;99.90
25328;DHT22;13279;51.300;12.394;2023-05-29T08:28:43;19.90;99.90
25328;DHT22;13279;51.300;12.394;2023-05-29T08:31:10;20.30;99.90
25328;DHT22;13279;51.300;12.394;2023-05-29T08:33:38;20.50;99.90
25328;DHT22;13279;51.300;12.394;2023-05-29T08:36:06;20.60;99.90
25328;DHT22;13279;51.300;12.394;2023-05-29T08:38:33;20.60;99.90
25328;DHT22;13279;51.300;12.394;2023-05-29T08:41:01;20.60;99.90
25328;DHT22;13279;51.300;12.394;2023-05-29T08:43:32;20.70;99.90
25328;DHT22;13279;51.300;12.394;2023-05-29T08:46:05;21.20;99.90
25328;DHT22;13279;51.300;12.394;2023-05-29T08:48:35;21.40;99.90
25328;DHT22;13279;51.300;12.394;2023-05-29T08:51:06;21.60;99.90
25328;DHT22;13279;51.300;12.394;2023-05-29T08:53:35;21.40;99.90
25328;DHT22;13279;51.300;12.394;2023-05-29T08:56:09;21.50;99.90
25328;DHT22;13279;51.300;12.394;2023-05-29T08:58:36;21.50;99.90
25328;DHT22;13279;51.300;12.394;2023-05-29T09:01:06;21.60;99.90
25328;DHT22;13279;51.300;12.394;2023-05-29T09:03:34;21.50;99.90
25328;DHT22;13279;51.300;12.394;2023-05-29T09:06:04;21.40;99.90
25328;DHT22;13279;51.300;12.394;2023-05-29T09:08:33;21.50;99.90
25328;DHT22;13279;51.300;12.394;2023-05-29T09:11:01;21.30;99.90
25328;DHT22;13279;51.300;12.394;2023-05-29T09:13:28;21.30;99.90
25328;DHT22;13279;51.300;12.394;2023-05-29T09:15:59;21.50;99.90
25328;DHT22;13279;51.300;12.394;2023-05-29T09:18:31;21.40;99.90
25328;DHT22;13279;51.300;12.394;2023-05-29T09:20:58;21.70;99.90
25328;DHT22;13279;51.300;12.394;2023-05-29T09:23:26;21.30;99.90
25328;DHT22;13279;51.300;12.394;2023-05-29T09:25:54;21.30;99.90
25328;DHT22;13279;51.300;12.394;2023-05-29T09:28:22;21.30;99.90
25328;DHT22;13279;51.300;12.394;2023-05-29T09:30:53;21.20;99.90
25328;DHT22;13279;51.300;12.394;2023-05-29T09:33:21;21.10;99.90
25328;DHT22;13279;51.300;12.394;2023-05-29T09:35:50;21.30;99.90
25328;DHT22;13279;51.300;12.394;2023-05-29T09:38:19;21.30;99.90
25328;DHT22;13279;51.300;12.394;2023-05-29T09:40:47;21.70;99.90
25328;DHT22;13279;51.300;12.394;2023-05-29T09:43:15;22.50;99.90
25328;DHT22;13279;51.300;12.394;2023-05-29T09:45:44;23.10;99.90
25328;DHT22;13279;51.300;12.394;2023-05-29T09:48:13;23.20;99.90
25328;DHT22;13279;51.300;12.394;2023-05-29T09:50:42;23.40;99.90
25328;DHT22;13279;51.300;12.394;2023-05-29T09:53:20;23.40;99.90
25328;DHT22;13279;51.300;12.394;2023-05-29T09:55:49;22.90;99.90
25328;DHT22;13279;51.300;12.394;2023-05-29T09:58:18;22.40;99.90
25328;DHT22;13279;51.300;12.394;2023-05-29T10:00:47;22.30;99.90
25328;DHT22;13279;51.300;12.394;2023-05-29T10:03:15;22.70;99.90
25328;DHT22;13279;51.300;12.394;2023-05-29T10:05:47;22.50;99.90
25328;DHT22;13279;51.300;12.394;2023-05-29T10:08:19;22.40;99.90
25328;DHT22;13279;51.300;12.394;2023-05-29T10:10:59;22.00;99.90
25328;DHT22;13279;51.300;12.394;2023-05-29T10:13:33;21.70;99.90
25328;DHT22;13279;51.300;12.394;2023-05-29T10:16:03;22.40;99.90
25328;DHT22;13279;51.300;12.394;2023-05-29T10:18:38;22.50;99.90
25328;DHT22;13279;51.300;12.394;2023-05-29T10:21:11;22.50;99.90
25328;DHT22;13279;51.300;12.394;2023-05-29T10:26:49;22.50;99.90
25328;DHT22;13279;51.300;12.394;2023-05-29T10:29:23;23.70;99.90
25328;DHT22;13279;51.300;12.394;2023-05-29T10:32:04;23.80;99.90
25328;DHT22;13279;51.300;12.394;2023-05-29T10:34:39;24.10;99.90
25328;DHT22;13279;51.300;12.394;2023-05-29T10:37:13;23.10;99.90
25328;DHT22;13279;51.300;12.394;2023-05-29T10:39:52;23.70;99.90
25328;DHT22;13279;51.300;12.394;2023-05-29T10:42:42;23.90;99.90
25328;DHT22;13279;51.300;12.394;2023-05-29T10:45:10;23.80;99.90
25328;DHT22;13279;51.300;12.394;2023-05-29T10:47:39;23.40;99.90
25328;DHT22;13279;51.300;12.394;2023-05-29T10:50:07;24.10;99.90
25328;DHT22;13279;51.300;12.394;2023-05-29T10:52:46;24.00;99.90
25328;DHT22;13279;51.300;12.394;2023-05-29T10:55:18;24.20;99.90
25328;DHT22;13279;51.300;12.394;2023-05-29T10:57:47;24.40;99.90
25328;DHT22;13279;51.300;12.394;2023-05-29T11:00:16;23.90;99.90
25328;DHT22;13279;51.300;12.394;2023-05-29T11:02:45;23.80;99.90
25328;DHT22;13279;51.300;12.394;2023-05-29T11:05:24;24.00;99.90
25328;DHT22;13279;51.300;12.394;2023-05-29T11:07:59;24.10;99.90
25328;DHT22;13279;51.300;12.394;2023-05-29T11:10:56;24.00;99.90
25328;DHT22;13279;51.300;12.394;2023-05-29T11:13:32;24.00;99.90
25328;DHT22;13279;51.300;12.394;2023-05-29T11:16:08;23.90;99.90
25328;DHT22;13279;51.300;12.394;2023-05-29T11:18:45;24.10;99.90
25328;DHT22;13279;51.300;12.394;2023-05-29T11:21:23;24.30;99.90
25328;DHT22;13279;51.300;12.394;2023-05-29T11:23:59;24.50;99.90
25328;DHT22;13279;51.300;12.394;2023-05-29T11:26:33;24.20;99.90
25328;DHT22;13279;51.300;12.394;2023-05-29T11:29:03;24.20;99.90
25328;DHT22;13279;51.300;12.394;2023-05-29T11:31:33;23.10;99.90
25328;DHT22;13279;51.300;12.394;2023-05-29T11:34:04;23.10;99.90
25328;DHT22;13279;51.300;12.394;2023-05-29T11:36:41;22.90;99.90
25328;DHT22;13279;51.300;12.394;2023-05-29T11:39:09;22.90;99.90
25328;DHT22;13279;51.300;12.394;2023-05-29T11:41:39;21.90;99.90
25328;DHT22;13279;51.300;12.394;2023-05-29T11:44:07;23.60;99.90
25328;DHT22;13279;51.300;12.394;2023-05-29T11:46:35;24.50;99.90
25328;DHT22;13279;51.300;12.394;2023-05-29T11:49:04;24.50;99.90
25328;DHT22;13279;51.300;12.394;2023-05-29T11:51:31;24.80;99.90
25328;DHT22;13279;51.300;12.394;2023-05-29T11:54:00;24.70;99.90
25328;DHT22;13279;51.300;12.394;2023-05-29T11:56:29;24.30;99.90
25328;DHT22;13279;51.300;12.394;2023-05-29T11:58:59;24.00;99.90
25328;DHT22;13279;51.300;12.394;2023-05-29T12:01:28;23.70;99.90
25328;DHT22;13279;51.300;12.394;2023-05-29T12:03:56;23.90;99.90
25328;DHT22;13279;51.300;12.394;2023-05-29T12:06:34;23.60;99.90
25328;DHT22;13279;51.300;12.394;2023-05-29T12:09:03;22.90;99.90
25328;DHT22;13279;51.300;12.394;2023-05-29T12:11:31;22.90;99.90
25328;DHT22;13279;51.300;12.394;2023-05-29T12:14:02;23.20;99.90
25328;DHT22;13279;51.300;12.394;2023-05-29T12:16:30;23.50;99.90
25328;DHT22;13279;51.300;12.394;2023-05-29T12:18:59;23.90;99.90
25328;DHT22;13279;51.300;12.394;2023-05-29T12:21:27;23.80;99.90
25328;DHT22;13279;51.300;12.394;2023-05-29T12:23:55;23.90;99.90
25328;DHT22;13279;51.300;12.394;2023-05-29T12:26:23;23.80;99.90
25328;DHT22;13279;51.300;12.394;2023-05-29T12:28:52;23.80;99.90
25328;DHT22;13279;51.300;12.394;2023-05-29T12:31:30;24.00;99.90
25328;DHT22;13279;51.300;12.394;2023-05-29T12:34:02;24.50;99.90
25328;DHT22;13279;51.300;12.394;2023-05-29T12:36:35;24.90;99.90
25328;DHT22;13279;51.300;12.394;2023-05-29T12:39:06;24.70;99.90
25328;DHT22;13279;51.300;12.394;2023-05-29T12:41:36;24.20;99.90
25328;DHT22;13279;51.300;12.394;2023-05-29T12:44:06;23.50;99.90
25328;DHT22;13279;51.300;12.394;2023-05-29T12:46:40;23.00;99.90
25328;DHT22;13279;51.300;12.394;2023-05-29T12:49:16;23.40;99.90
25328;DHT22;13279;51.300;12.394;2023-05-29T12:51:46;24.20;99.90
25328;DHT22;13279;51.300;12.394;2023-05-29T12:54:15;24.90;99.90
25328;DHT22;13279;51.300;12.394;2023-05-29T13:01:46;25.70;99.90
25328;DHT22;13279;51.300;12.394;2023-05-29T13:04:18;24.80;99.90
25328;DHT22;13279;51.300;12.394;2023-05-29T13:06:45;24.20;99.90
25328;DHT22;13279;51.300;12.394;2023-05-29T13:09:13;23.90;99.90
25328;DHT22;13279;51.300;12.394;2023-05-29T13:11:47;23.50;99.90
25328;DHT22;13279;51.300;12.394;2023-05-29T13:14:22;23.20;99.90
25328;DHT22;13279;51.300;12.394;2023-05-29T13:16:51;22.90;99.90
25328;DHT22;13279;51.300;12.394;2023-05-29T13:19:19;22.90;99.90
25328;DHT22;13279;51.300;12.394;2023-05-29T13:21:47;23.00;99.90
25328;DHT22;13279;51.300;12.394;2023-05-29T13:24:15;23.30;99.90
25328;DHT22;13279;51.300;12.394;2023-05-29T13:26:43;23.30;99.90
25328;DHT22;13279;51.300;12.394;2023-05-29T13:29:12;22.60;99.90
25328;DHT22;13279;51.300;12.394;2023-05-29T13:31:40;23.20;99.90
25328;DHT22;13279;51.300;12.394;2023-05-29T13:34:12;23.10;99.90
25328;DHT22;13279;51.300;12.394;2023-05-29T13:36:39;24.00;99.90
25328;DHT22;13279;51.300;12.394;2023-05-29T13:39:07;23.60;99.90
25328;DHT22;13279;51.300;12.394;2023-05-29T13:41:36;23.80;99.90
25328;DHT22;13279;51.300;12.394;2023-05-29T13:46:33;25.80;99.90
25328;DHT22;13279;51.300;12.394;2023-05-29T13:49:04;25.90;99.90
25328;DHT22;13279;51.300;12.394;2023-05-29T13:51:35;25.80;99.90
25328;DHT22;13279;51.300;12.394;2023-05-29T13:54:03;25.50;99.90
25328;DHT22;13279;51.300;12.394;2023-05-29T13:56:33;24.70;99.90
25328;DHT22;13279;51.300;12.394;2023-05-29T13:59:03;24.50;99.90
25328;DHT22;13279;51.300;12.394;2023-05-29T14:01:34;24.30;99.90
25328;DHT22;13279;51.300;12.394;2023-05-29T14:04:02;24.10;99.90
25328;DHT22;13279;51.300;12.394;2023-05-29T14:06:30;24.20;99.90
25328;DHT22;13279;51.300;12.394;2023-05-29T14:09:03;24.50;99.90
25328;DHT22;13279;51.300;12.394;2023-05-29T14:11:34;25.10;99.90
25328;DHT22;13279;51.300;12.394;2023-05-29T14:14:03;25.70;99.90
25328;DHT22;13279;51.300;12.394;2023-05-29T14:16:34;25.90;99.90
25328;DHT22;13279;51.300;12.394;2023-05-29T14:19:02;26.00;99.90
25328;DHT22;13279;51.300;12.394;2023-05-29T14:21:30;25.60;99.90
25328;DHT22;13279;51.300;12.394;2023-05-29T14:23:59;25.50;99.90
25328;DHT22;13279;51.300;12.394;2023-05-29T14:26:27;25.10;99.90
25328;DHT22;13279;51.300;12.394;2023-05-29T14:28:54;24.50;99.90
25328;DHT22;13279;51.300;12.394;2023-05-29T14:31:22;24.50;99.90
25328;DHT22;13279;51.300;12.394;2023-05-29T14:33:49;24.60;99.90
25328;DHT22;13279;51.300;12.394;2023-05-29T14:36:17;25.10;99.90
25328;DHT22;13279;51.300;12.394;2023-05-29T14:38:45;25.60;99.90
25328;DHT22;13279;51.300;12.394;2023-05-29T14:43:47;27.10;99.90
25328;DHT22;13279;51.300;12.394;2023-05-29T15:40:50;26.40;99.90
25328;DHT22;13279;51.300;12.394;2023-05-29T15:43:18;26.50;99.90
25328;DHT22;13279;51.300;12.394;2023-05-29T15:45:46;25.80;99.90
25328;DHT22;13279;51.300;12.394;2023-05-29T15:48:16;25.70;99.90
25328;DHT22;13279;51.300;12.394;2023-05-29T15:50:44;25.70;99.90
25328;DHT22;13279;51.300;12.394;2023-05-29T15:53:11;25.30;99.90
25328;DHT22;13279;51.300;12.394;2023-05-29T15:55:39;25.00;99.90
25328;DHT22;13279;51.300;12.394;2023-05-29T15:58:06;24.70;99.90
25328;DHT22;13279;51.300;12.394;2023-05-29T16:00:34;24.50;99.90
25328;DHT22;13279;51.300;12.394;2023-05-29T16:03:02;24.50;99.90
25328;DHT22;13279;51.300;12.394;2023-05-29T16:05:31;24.10;99.90
25328;DHT22;13279;51.300;12.394;2023-05-29T16:07:58;24.00;99.90
25328;DHT22;13279;51.300;12.394;2023-05-29T16:10:25;24.00;99.90
25328;DHT22;13279;51.300;12.394;2023-05-29T16:12:54;23.90;99.90
25328;DHT22;13279;51.300;12.394;2023-05-29T16:15:21;23.80;99.90
25328;DHT22;13279;51.300;12.394;2023-05-29T16:17:49;23.60;99.90
25328;DHT22;13279;51.300;12.394;2023-05-29T16:20:17;23.40;99.90
25328;DHT22;13279;51.300;12.394;2023-05-29T16:22:45;23.30;99.90
25328;DHT22;13279;51.300;12.394;2023-05-29T16:25:13;23.10;99.90
25328;DHT22;13279;51.300;12.394;2023-05-29T16:27:41;23.00;99.90
25328;DHT22;13279;51.300;12.394;2023-05-29T16:30:09;23.00;99.90
25328;DHT22;13279;51.300;12.394;2023-05-29T16:32:37;23.10;99.90
25328;DHT22;13279;51.300;12.394;2023-05-29T16:35:05;23.00;99.90
25328;DHT22;13279;51.300;12.394;2023-05-29T16:37:33;23.00;99.90
25328;DHT22;13279;51.300;12.394;2023-05-29T16:40:03;23.00;99.90